createdAt,value
2022-07-25T00:00:13.969Z,4.80
2022-07-25T00:05:16.694Z,3.80
2022-07-25T00:10:20.809Z,5.00
2022-07-25T00:15:23.693Z,5.00
2022-07-25T00:20:26.644Z,4.20
2022-07-25T00:25:30.707Z,4.00
2022-07-25T00:30:33.443Z,4.60
2022-07-25T00:35:36.176Z,4.20
2022-07-25T00:40:40.244Z,5.00
2022-07-25T00:45:42.988Z,4.80
2022-07-25T00:50:45.911Z,4.20
2022-07-25T00:55:50.006Z,4.60
2022-07-25T01:00:52.780Z,4.00
2022-07-25T01:05:55.482Z,5.00
2022-07-25T01:10:59.780Z,4.00
2022-07-25T01:16:02.641Z,5.00
2022-07-25T01:21:07.177Z,4.00
2022-07-25T01:26:10.135Z,5.20
2022-07-25T01:31:12.957Z,4.00
2022-07-25T01:36:17.130Z,5.00
2022-07-25T01:41:22.739Z,5.00
2022-07-25T01:46:25.731Z,5.00
2022-07-25T01:51:29.865Z,5.00
2022-07-25T01:56:32.701Z,5.00
2022-07-25T02:01:36.255Z,5.00
2022-07-25T02:06:41.602Z,5.00
2022-07-25T02:11:44.370Z,5.40
2022-07-25T02:16:47.213Z,6.60
2022-07-25T02:21:51.349Z,6.00
2022-07-25T02:26:54.133Z,5.40
2022-07-25T02:31:56.937Z,6.00
2022-07-25T02:37:01.141Z,5.00
2022-07-25T02:42:04.005Z,5.20
2022-07-25T02:47:06.996Z,6.00
2022-07-25T02:52:11.084Z,5.60
2022-07-25T02:57:14.052Z,5.80
2022-07-25T03:02:16.739Z,5.60
2022-07-25T03:07:20.880Z,6.00
2022-07-25T03:12:23.617Z,6.00
2022-07-25T03:17:26.551Z,7.00
2022-07-25T03:22:30.649Z,6.60
2022-07-25T03:27:33.377Z,6.60
2022-07-25T03:32:36.375Z,6.80
2022-07-25T03:37:40.502Z,6.00
2022-07-25T03:42:43.253Z,7.60
2022-07-25T03:47:46.073Z,7.00
2022-07-25T03:52:50.230Z,8.00
2022-07-25T03:57:53.040Z,6.60
2022-07-25T04:02:55.779Z,7.00
2022-07-25T04:08:00.389Z,8.80
2022-07-25T04:13:03.751Z,8.00
2022-07-25T04:18:06.776Z,7.00
2022-07-25T04:23:13.457Z,9.00
2022-07-25T04:28:16.189Z,9.20
2022-07-25T04:33:19.391Z,9.00
2022-07-25T04:38:23.551Z,8.20
2022-07-25T04:43:26.519Z,10.00
2022-07-25T04:48:29.502Z,10.40
2022-07-25T04:53:33.687Z,10.00
2022-07-25T04:58:36.440Z,9.80
2022-07-25T05:03:39.174Z,10.20
2022-07-25T05:08:43.374Z,10.20
2022-07-25T05:13:46.159Z,10.00
2022-07-25T05:18:48.963Z,14.50
2022-07-25T05:23:53.248Z,16.00
2022-07-25T05:28:55.988Z,13.00
2022-07-25T05:33:58.747Z,13.50
2022-07-25T05:39:03.189Z,12.00
2022-07-25T05:44:06.348Z,13.00
2022-07-25T05:49:09.418Z,13.00
2022-07-25T05:54:13.584Z,12.75
2022-07-25T05:59:16.273Z,12.80
2022-07-25T06:04:19.854Z,12.00
2022-07-25T06:09:26.124Z,13.00
2022-07-25T06:14:28.990Z,12.40
2022-07-25T06:19:32.234Z,12.00
2022-07-25T06:24:36.351Z,13.25
2022-07-25T06:29:39.647Z,12.00
2022-07-25T06:34:42.448Z,12.80
2022-07-25T06:39:46.604Z,13.00
2022-07-25T06:44:49.646Z,14.00
2022-07-25T06:49:52.732Z,13.00
2022-07-25T06:54:56.866Z,14.50
2022-07-25T06:59:59.645Z,15.25
2022-07-25T07:05:02.553Z,14.00
2022-07-25T07:10:07.670Z,14.00
2022-07-25T07:15:11.253Z,15.00
2022-07-25T07:20:14.135Z,14.25
2022-07-25T07:25:20.840Z,14.50
2022-07-25T07:30:26.024Z,15.00
2022-07-25T07:35:36.851Z,15.00
2022-07-25T07:40:41.174Z,14.00
2022-07-25T07:45:43.939Z,13.25
2022-07-25T07:50:46.752Z,12.75
2022-07-25T07:55:55.304Z,13.50
2022-07-25T08:00:58.205Z,14.00
2022-07-25T08:06:01.051Z,12.50
2022-07-25T08:11:05.420Z,12.75
2022-07-25T08:16:08.667Z,13.00
2022-07-25T08:21:11.854Z,13.25
2022-07-25T08:26:15.922Z,12.75
2022-07-25T08:31:18.861Z,12.60
2022-07-25T08:36:21.672Z,11.00
2022-07-25T08:41:25.788Z,11.25
2022-07-25T08:46:30.227Z,11.00
2022-07-25T08:51:33.644Z,11.25
2022-07-25T08:56:37.776Z,13.25
2022-07-25T09:01:41.143Z,10.60
2022-07-25T09:06:50.512Z,11.00
2022-07-25T09:11:54.739Z,11.00
2022-07-25T09:16:57.773Z,10.75
2022-07-25T09:22:02.596Z,10.00
2022-07-25T09:27:12.514Z,10.40
2022-07-25T09:32:16.966Z,10.40
2022-07-25T09:37:20.826Z,10.00
2022-07-25T09:42:25.856Z,9.40
2022-07-25T09:47:28.755Z,10.20
2022-07-25T09:52:31.622Z,11.00
2022-07-25T09:57:35.729Z,10.20
2022-07-25T10:02:44.720Z,11.00
2022-07-25T10:07:48.456Z,11.00
2022-07-25T10:13:09.854Z,10.00
2022-07-25T10:18:13.452Z,10.00
2022-07-25T10:23:24.109Z,9.00
2022-07-25T10:28:37.111Z,10.40
2022-07-25T10:33:42.257Z,10.00
2022-07-25T10:38:45.392Z,11.00
2022-07-25T10:43:51.473Z,10.50
2022-07-25T10:49:01.692Z,10.75
2022-07-25T10:54:13.912Z,11.00
2022-07-25T10:59:26.811Z,10.20
2022-07-25T11:04:29.563Z,10.20
2022-07-25T11:09:34.008Z,10.40
2022-07-25T11:14:40.899Z,11.00
2022-07-25T11:19:43.806Z,10.50
2022-07-25T11:24:47.221Z,10.25
2022-07-25T11:29:51.340Z,11.00
2022-07-25T11:34:54.550Z,10.25
2022-07-25T11:39:57.465Z,11.50
2022-07-25T11:45:01.673Z,10.50
2022-07-25T11:50:05.803Z,11.00
2022-07-25T11:55:09.871Z,10.00
2022-07-25T12:00:17.577Z,9.80
2022-07-25T12:05:21.561Z,10.80
2022-07-25T12:10:25.296Z,9.50
2022-07-25T12:15:30.407Z,10.50
2022-07-25T12:20:34.197Z,11.00
2022-07-25T12:25:38.174Z,9.50
2022-07-25T12:30:43.012Z,10.00
2022-07-25T12:35:45.960Z,9.00
2022-07-25T12:40:49.805Z,10.60
2022-07-25T12:45:53.966Z,9.00
2022-07-25T12:50:56.911Z,10.00
2022-07-25T12:55:59.652Z,10.00
2022-07-25T13:01:03.878Z,9.20
2022-07-25T13:06:07.016Z,9.80
2022-07-25T13:11:09.797Z,9.40
2022-07-25T13:16:14.475Z,10.00
2022-07-25T13:21:17.746Z,10.00
2022-07-25T13:26:20.605Z,10.00
2022-07-25T13:31:24.833Z,9.00
2022-07-25T13:36:27.664Z,10.20
2022-07-25T13:41:30.423Z,9.40
2022-07-25T13:46:35.118Z,9.00
2022-07-25T13:51:37.966Z,9.00
2022-07-25T13:56:41.579Z,10.00
2022-07-25T14:01:47.473Z,8.60
2022-07-25T14:06:52.304Z,9.00
2022-07-25T14:11:55.174Z,9.00
2022-07-25T14:16:59.521Z,9.60
2022-07-25T14:22:02.750Z,9.40
2022-07-25T14:27:05.534Z,9.00
2022-07-25T14:32:09.770Z,8.00
2022-07-25T14:37:12.598Z,8.80
2022-07-25T14:42:15.563Z,8.20
2022-07-25T14:47:19.834Z,8.00
2022-07-25T14:52:24.725Z,7.40
2022-07-25T14:57:27.719Z,7.80
2022-07-25T15:02:32.244Z,8.00
2022-07-25T15:07:35.123Z,7.60
2022-07-25T15:12:37.868Z,8.00
2022-07-25T15:17:42.337Z,8.00
2022-07-25T15:22:45.290Z,8.00
2022-07-25T15:27:48.090Z,8.60
2022-07-25T15:32:52.395Z,8.00
2022-07-25T15:37:55.308Z,8.00
2022-07-25T15:42:58.445Z,7.40
2022-07-25T15:48:03.668Z,8.80
2022-07-25T15:53:06.619Z,6.00
2022-07-25T15:58:09.621Z,7.60
2022-07-25T16:03:14.634Z,7.00
2022-07-25T16:08:17.859Z,7.00
2022-07-25T16:13:20.628Z,6.40
2022-07-25T16:18:26.873Z,6.20
2022-07-25T16:23:36.188Z,7.80
2022-07-25T16:28:41.270Z,7.80
2022-07-25T16:33:46.143Z,6.00
2022-07-25T16:38:49.264Z,7.60
2022-07-25T16:43:52.188Z,8.00
2022-07-25T16:48:56.895Z,8.00
2022-07-25T16:54:00.065Z,7.00
2022-07-25T16:59:03.012Z,7.00
2022-07-25T17:04:08.057Z,6.20
2022-07-25T17:09:11.118Z,8.00
2022-07-25T17:14:14.295Z,7.00
2022-07-25T17:19:18.742Z,7.00
2022-07-25T17:24:21.673Z,6.60
2022-07-25T17:29:24.575Z,6.60
2022-07-25T17:34:28.869Z,6.80
2022-07-25T17:39:31.641Z,7.00
2022-07-25T17:44:34.554Z,7.00
2022-07-25T17:49:38.670Z,7.00
2022-07-25T17:54:42.315Z,6.20
2022-07-25T17:59:45.189Z,14.75
2022-07-25T18:04:49.453Z,9.00
2022-07-25T18:09:52.877Z,12.25
2022-07-25T18:14:55.847Z,10.75
2022-07-25T18:20:00.022Z,13.25
2022-07-25T18:25:02.805Z,14.00
2022-07-25T18:30:07.911Z,12.00
2022-07-25T18:35:12.296Z,12.75
2022-07-25T18:40:20.467Z,13.75
2022-07-25T18:45:24.072Z,20.00
2022-07-25T18:50:28.728Z,16.00
2022-07-25T18:55:31.495Z,14.75
2022-07-25T19:00:34.543Z,13.00
2022-07-25T19:05:38.988Z,14.00
2022-07-25T19:10:42.176Z,13.25
2022-07-25T19:15:45.009Z,14.00
2022-07-25T19:20:49.195Z,15.00
2022-07-25T19:25:52.376Z,14.50
2022-07-25T19:30:55.158Z,14.25
2022-07-25T19:35:59.372Z,14.75
2022-07-25T19:41:02.275Z,13.75
2022-07-25T19:46:05.057Z,15.00
2022-07-25T19:51:09.292Z,14.00
2022-07-25T19:56:12.057Z,14.00
2022-07-25T20:01:14.845Z,12.50
2022-07-25T20:06:20.574Z,13.00
2022-07-25T20:11:23.408Z,14.00
2022-07-25T20:16:26.276Z,13.25
2022-07-25T20:21:30.445Z,14.25
2022-07-25T20:26:33.216Z,15.00
2022-07-25T20:31:36.886Z,14.75
2022-07-25T20:36:41.151Z,14.00
2022-07-25T20:41:44.637Z,13.50
2022-07-25T20:46:47.561Z,14.50
2022-07-25T20:51:54.622Z,14.00
2022-07-25T20:56:57.718Z,15.25
2022-07-25T21:02:00.855Z,15.25
2022-07-25T21:07:05.333Z,14.50
2022-07-25T21:12:10.477Z,16.00
2022-07-25T21:17:13.211Z,16.25
2022-07-25T21:22:17.641Z,14.50
2022-07-25T21:27:20.595Z,14.00
2022-07-25T21:32:23.609Z,14.75
2022-07-25T21:37:27.957Z,13.25
2022-07-25T21:42:30.775Z,14.50
2022-07-25T21:47:33.984Z,14.50
2022-07-25T21:52:38.166Z,14.00
2022-07-25T21:57:40.873Z,14.00
2022-07-25T22:02:43.830Z,14.25
2022-07-25T22:07:48.083Z,12.25
2022-07-25T22:12:51.079Z,13.75
2022-07-25T22:17:53.935Z,10.20
2022-07-25T22:22:58.165Z,12.00
2022-07-25T22:28:01.008Z,11.50
2022-07-25T22:33:03.781Z,10.60
2022-07-25T22:38:09.211Z,11.00
2022-07-25T22:43:12.055Z,10.60
2022-07-25T22:48:14.907Z,11.00
2022-07-25T22:53:18.993Z,11.40
2022-07-25T22:58:21.783Z,10.00
2022-07-25T23:03:24.566Z,10.40
2022-07-25T23:08:34.882Z,9.40
2022-07-25T23:13:37.894Z,9.80
2022-07-25T23:18:40.652Z,9.80
2022-07-25T23:23:44.973Z,11.00
2022-07-25T23:28:47.814Z,9.40
2022-07-25T23:33:50.679Z,9.40
2022-07-25T23:38:54.809Z,9.60
2022-07-25T23:43:59.467Z,9.40
2022-07-25T23:49:02.798Z,9.40
2022-07-25T23:54:07.081Z,9.40
2022-07-25T23:59:10.373Z,10.00
